Time;durP1;ratioP1;P1;durP2;ratioP2;P2;SDS_P1;SDS_P2;PMS_P1;PMS_P2;Temp;Humidity;BMP_temperature;BMP_pressure;BME280_temperature;BME280_humidity;BME280_pressure;Samples;Min_cycle;Max_cycle;Signal;HPM_P1;HPM_P2
2022/04/08 00:00:27;;;;;;;9.10;1.20;;;;;;;11.47;49.34;98330.31;4971695;28;20054;-83
2022/04/08 00:02:54;;;;;;;10.15;2.00;;;;;;;11.61;50.63;98327.88;4922847;28;20509;-83
2022/04/08 00:05:21;;;;;;;5.20;1.38;;;;;;;11.60;49.79;98336.84;4975971;28;20243;-83
2022/04/08 00:07:48;;;;;;;7.78;1.33;;;;;;;11.58;50.89;98345.00;4976150;28;20047;-82
2022/04/08 00:10:14;;;;;;;5.88;1.27;;;;;;;11.59;50.95;98343.16;4986249;28;20043;-83
2022/04/08 00:12:41;;;;;;;9.07;1.02;;;;;;;11.58;50.14;98353.00;4971563;28;20043;-83
2022/04/08 00:15:09;;;;;;;9.50;2.58;;;;;;;11.58;49.83;98352.16;4964228;28;20050;-83
2022/04/08 00:17:36;;;;;;;8.77;1.58;;;;;;;11.53;50.53;98355.34;4970035;28;20134;-83
2022/04/08 00:20:03;;;;;;;7.70;1.13;;;;;;;11.54;50.05;98361.50;4980810;28;20144;-83
2022/04/08 00:22:29;;;;;;;8.13;2.20;;;;;;;11.52;49.16;98359.84;4972723;28;20038;-83
2022/04/08 00:24:57;;;;;;;6.25;1.30;;;;;;;11.44;48.00;98362.53;4973020;28;20121;-83
2022/04/08 00:27:24;;;;;;;9.20;1.55;;;;;;;11.47;49.74;98364.88;4970397;28;20042;-83
2022/04/08 00:29:51;;;;;;;8.25;1.30;;;;;;;11.45;49.60;98372.19;4972669;28;20062;-83
2022/04/08 00:32:18;;;;;;;8.70;1.38;;;;;;;11.46;49.60;98371.16;4960093;28;20051;-83
2022/04/08 00:34:44;;;;;;;10.07;1.50;;;;;;;11.47;50.48;98370.19;4967093;28;20039;-83
2022/04/08 00:37:11;;;;;;;6.18;1.40;;;;;;;11.48;50.77;98363.84;4976073;28;20039;-83
2022/04/08 00:39:38;;;;;;;7.78;1.75;;;;;;;11.48;50.89;98374.50;4964733;28;20057;-82
2022/04/08 00:42:36;;;;;;;11.70;2.30;;;;;;;11.29;49.72;98367.78;4954855;28;20445;-82
2022/04/08 00:45:03;;;;;;;3.33;1.08;;;;;;;11.42;50.49;98379.66;4970983;28;20575;-83
2022/04/08 00:47:29;;;;;;;8.18;2.03;;;;;;;11.43;50.18;98381.34;4969053;28;20137;-83
2022/04/08 00:49:56;;;;;;;8.98;1.58;;;;;;;11.43;50.83;98391.97;4980122;28;20568;-83
2022/04/08 00:52:23;;;;;;;6.43;1.48;;;;;;;11.43;50.57;98391.97;4979116;28;20134;-83
2022/04/08 00:54:50;;;;;;;7.57;1.77;;;;;;;11.42;50.50;98398.28;4976676;28;20497;-83
2022/04/08 00:57:17;;;;;;;8.00;1.48;;;;;;;11.43;50.58;98389.31;4972584;28;20457;-83
2022/04/08 00:59:44;;;;;;;7.28;1.33;;;;;;;11.42;50.95;98391.16;4953165;28;20070;-83
2022/04/08 01:02:10;;;;;;;5.90;1.10;;;;;;;11.42;50.59;98396.47;4973194;28;20050;-83
2022/04/08 01:04:37;;;;;;;6.20;1.38;;;;;;;11.41;50.14;98397.44;4951259;28;20042;-83
2022/04/08 01:07:04;;;;;;;4.30;1.02;;;;;;;11.40;50.79;98406.44;4967741;28;20047;-83
2022/04/08 01:09:31;;;;;;;4.53;1.30;;;;;;;11.40;50.24;98418.91;4967196;28;20390;-82
2022/04/08 01:11:58;;;;;;;8.65;1.90;;;;;;;11.38;50.16;98412.94;4952694;28;20409;-83
2022/04/08 01:14:24;;;;;;;4.68;1.30;;;;;;;11.36;50.63;98412.28;4971281;28;20122;-82
2022/04/08 01:16:51;;;;;;;9.98;1.55;;;;;;;11.34;50.09;98415.09;4950549;28;20529;-82
2022/04/08 01:19:18;;;;;;;9.05;1.58;;;;;;;11.34;50.77;98417.75;4975637;28;20038;-83
2022/04/08 01:21:44;;;;;;;7.13;1.20;;;;;;;11.35;50.37;98421.25;4977110;28;20042;-83
2022/04/08 01:24:13;;;;;;;8.88;1.67;;;;;;;11.33;50.17;98420.63;4952225;28;20046;-83
2022/04/08 01:26:41;;;;;;;4.25;2.05;;;;;;;11.33;50.44;98425.94;4948155;28;20043;-82
2022/04/08 01:29:11;;;;;;;10.98;1.35;;;;;;;11.30;50.64;98422.59;4953405;28;20498;-82
2022/04/08 01:31:43;;;;;;;7.82;1.40;;;;;;;11.29;50.39;98418.28;4968944;28;20043;-83
2022/04/08 01:34:10;;;;;;;9.37;1.73;;;;;;;11.30;50.13;98417.28;4963950;28;20055;-83
2022/04/08 01:36:37;;;;;;;8.95;1.80;;;;;;;11.29;50.13;98420.94;4969893;28;20046;-83
2022/04/08 01:39:05;;;;;;;9.52;1.50;;;;;;;11.29;49.98;98412.13;4961721;28;20045;-83
2022/04/08 01:41:32;;;;;;;6.00;1.48;;;;;;;11.27;50.34;98417.66;4967777;28;20405;-83
2022/04/08 01:43:59;;;;;;;9.95;1.50;;;;;;;11.27;49.47;98422.13;4970393;28;20061;-83
2022/04/08 01:46:25;;;;;;;14.40;1.42;;;;;;;11.25;49.89;98424.16;4972221;28;20687;-83
2022/04/08 01:48:54;;;;;;;8.35;1.40;;;;;;;11.24;50.17;98433.09;4971850;28;20077;-83
2022/04/08 01:51:22;;;;;;;11.38;1.48;;;;;;;11.22;50.00;98429.78;4973813;28;20054;-83
2022/04/08 01:53:48;;;;;;;10.10;1.80;;;;;;;11.22;50.10;98422.66;4971846;28;20130;-83
2022/04/08 01:56:15;;;;;;;10.10;1.63;;;;;;;11.19;49.57;98441.59;4972609;28;20129;-83
2022/04/08 01:58:42;;;;;;;5.75;1.27;;;;;;;11.20;49.52;98439.78;4969609;28;20437;-83
2022/04/08 02:01:08;;;;;;;5.55;1.50;;;;;;;11.17;49.85;98422.34;4947130;28;20429;-84
2022/04/08 02:03:35;;;;;;;6.07;1.38;;;;;;;11.17;50.13;98432.97;4965448;28;20101;-83
2022/04/08 02:06:02;;;;;;;6.40;1.45;;;;;;;11.17;50.34;98426.81;4952795;28;20047;-84
2022/04/08 02:08:29;;;;;;;6.85;1.50;;;;;;;11.17;50.03;98432.13;4968479;28;20047;-84
2022/04/08 02:10:55;;;;;;;8.43;1.77;;;;;;;11.16;50.43;98441.13;4973849;28;20580;-83
2022/04/08 02:13:22;;;;;;;7.03;1.45;;;;;;;11.17;50.34;98437.44;4989059;28;20142;-83
2022/04/08 02:15:49;;;;;;;14.52;2.00;;;;;;;11.15;49.94;98442.13;4990835;28;20051;-83
2022/04/08 02:18:17;;;;;;;8.35;1.65;;;;;;;11.14;50.13;98433.31;4971964;28;20042;-83
2022/04/08 02:20:43;;;;;;;8.70;1.20;;;;;;;11.10;49.77;98444.47;4977556;28;20052;-83
2022/04/08 02:23:10;;;;;;;5.45;1.35;;;;;;;11.09;49.97;98446.28;4981104;28;20405;-83
2022/04/08 02:25:37;;;;;;;5.10;1.40;;;;;;;11.07;50.40;98456.28;4982819;28;20034;-83
2022/04/08 02:28:04;;;;;;;9.30;1.55;;;;;;;11.07;50.50;98453.63;4958065;28;20045;-83
2022/04/08 02:30:30;;;;;;;12.43;1.92;;;;;;;11.07;50.73;98461.59;4948130;28;20486;-83
2022/04/08 02:32:58;;;;;;;6.63;1.40;;;;;;;11.05;50.84;98471.56;4975194;28;20051;-83
2022/04/08 02:35:25;;;;;;;7.35;1.63;;;;;;;11.05;50.61;98474.22;4964502;28;20046;-83
2022/04/08 02:37:52;;;;;;;9.00;1.60;;;;;;;11.07;50.21;98482.84;4971079;28;20043;-83
2022/04/08 02:40:18;;;;;;;8.68;1.65;;;;;;;11.05;50.64;98490.16;4978681;28;20046;-83
2022/04/08 02:42:45;;;;;;;4.97;1.38;;;;;;;11.01;50.67;98483.50;4975768;28;20069;-83
2022/04/08 02:45:12;;;;;;;10.73;1.77;;;;;;;11.01;51.02;98484.34;4977013;28;20047;-83
2022/04/08 02:47:43;;;;;;;12.35;2.45;;;;;;;10.99;50.30;98482.84;4970116;28;20513;-83
2022/04/08 02:50:10;;;;;;;5.72;1.38;;;;;;;10.99;50.73;98491.66;4971669;28;20053;-83
2022/04/08 02:52:37;;;;;;;10.90;1.70;;;;;;;10.96;50.35;98491.16;4975635;28;20049;-83
2022/04/08 02:55:04;;;;;;;4.40;1.05;;;;;;;10.96;50.33;98492.00;4976997;28;20492;-83
2022/04/08 02:57:31;;;;;;;7.18;1.80;;;;;;;10.95;50.60;98492.19;4968407;28;20398;-83
2022/04/08 03:00:01;;;;;;;12.95;2.35;;;;;;;10.92;50.41;98490.69;4967050;28;20043;-83
2022/04/08 03:02:28;;;;;;;10.07;1.40;;;;;;;10.92;50.53;98485.38;4951297;28;20054;-83
2022/04/08 03:04:55;;;;;;;8.82;1.83;;;;;;;10.92;50.67;98487.22;4988753;28;20050;-82
2022/04/08 03:07:21;;;;;;;8.60;1.58;;;;;;;10.90;51.10;98487.38;4979748;28;20046;-83
2022/04/08 03:09:48;;;;;;;5.60;1.35;;;;;;;10.89;51.47;98479.56;4972361;28;20051;-83
2022/04/08 03:12:15;;;;;;;12.52;1.63;;;;;;;10.86;51.06;98491.34;4976094;28;20069;-82
2022/04/08 03:14:41;;;;;;;7.15;1.55;;;;;;;10.86;51.41;98497.53;4959174;28;20047;-83
2022/04/08 03:17:08;;;;;;;13.80;2.33;;;;;;;10.85;51.24;98500.34;4953046;28;20049;-83
2022/04/08 03:19:35;;;;;;;9.05;2.75;;;;;;;10.82;51.63;98493.53;4968530;28;20051;-83
2022/04/08 03:22:02;;;;;;;8.13;2.88;;;;;;;10.83;51.81;98507.63;4973125;28;20133;-83
2022/04/08 03:24:30;;;;;;;6.25;2.05;;;;;;;10.81;51.84;98504.31;4983286;28;20122;-83
2022/04/08 03:27:01;;;;;;;13.88;2.38;;;;;;;10.77;52.17;98500.38;4970303;28;20055;-83
2022/04/08 03:29:28;;;;;;;8.85;2.42;;;;;;;10.78;52.10;98507.31;4974704;28;20077;-83
2022/04/08 03:31:54;;;;;;;9.40;2.45;;;;;;;10.77;51.96;98516.28;4975584;28;20046;-83
2022/04/08 03:34:21;;;;;;;11.52;1.98;;;;;;;10.74;51.55;98511.31;4990910;28;20046;-83
2022/04/08 03:36:48;;;;;;;12.95;2.08;;;;;;;10.74;51.83;98514.81;4953849;28;20130;-82
2022/04/08 03:39:16;;;;;;;7.63;2.30;;;;;;;10.73;52.15;98520.28;4963033;28;20054;-83
2022/04/08 03:41:43;;;;;;;13.32;2.10;;;;;;;10.74;52.00;98514.81;4972682;28;20069;-83
2022/04/08 03:44:09;;;;;;;12.88;2.05;;;;;;;10.74;52.16;98513.97;4971417;28;20482;-83
2022/04/08 03:46:36;;;;;;;7.70;1.60;;;;;;;10.73;52.23;98517.63;4965455;28;20138;-83
2022/04/08 03:49:04;;;;;;;8.48;1.58;;;;;;;10.72;52.33;98511.47;4971570;28;20054;-83
2022/04/08 03:51:31;;;;;;;11.45;1.60;;;;;;;10.75;51.95;98512.97;4975103;28;20138;-83
2022/04/08 03:53:58;;;;;;;8.10;2.47;;;;;;;10.75;52.04;98505.00;4970626;28;20044;-83
2022/04/08 03:56:50;;;;;;;11.32;2.10;;;;;;;10.57;52.11;98506.03;4979000;28;20047;-83
2022/04/08 03:59:17;;;;;;;7.65;1.60;;;;;;;10.69;52.26;98508.34;4935459;28;20421;-83
2022/04/08 04:01:44;;;;;;;16.42;2.53;;;;;;;10.70;52.28;98521.44;4973496;28;20046;-83
2022/04/08 04:04:11;;;;;;;8.23;1.40;;;;;;;10.69;52.04;98517.13;4973551;28;20133;-83
2022/04/08 04:06:38;;;;;;;10.50;2.08;;;;;;;10.69;52.33;98518.97;4961472;28;20046;-83
2022/04/08 04:09:05;;;;;;;15.25;2.05;;;;;;;10.68;52.35;98525.25;4956537;28;20054;-81
2022/04/08 04:11:33;;;;;;;13.18;2.20;;;;;;;10.67;52.46;98521.78;4976393;28;20039;-80
2022/04/08 04:14:01;;;;;;;9.75;1.90;;;;;;;10.68;52.33;98522.59;4964923;28;20043;-81
2022/04/08 04:16:28;;;;;;;13.52;1.65;;;;;;;10.67;52.27;98528.91;4962524;28;20166;-80
2022/04/08 04:18:56;;;;;;;9.43;1.92;;;;;;;10.64;52.64;98520.28;4969433;28;20043;-80
2022/04/08 04:21:24;;;;;;;8.43;1.52;;;;;;;10.64;52.66;98524.78;4957248;28;20051;-80
2022/04/08 04:23:51;;;;;;;9.15;1.80;;;;;;;10.64;52.62;98524.78;4961765;28;20062;-79
2022/04/08 04:26:23;;;;;;;9.50;1.75;;;;;;;10.61;52.58;98523.28;4966724;28;20130;-79
2022/04/08 04:28:50;;;;;;;7.88;1.38;;;;;;;10.61;52.67;98520.63;4974194;28;20054;-80
2022/04/08 04:31:16;;;;;;;7.78;1.50;;;;;;;10.61;52.63;98525.94;4967383;28;20038;-80
2022/04/08 04:33:43;;;;;;;8.77;1.85;;;;;;;10.60;52.77;98523.44;4964896;28;20050;-79
2022/04/08 04:36:13;;;;;;;8.02;1.88;;;;;;;10.58;53.01;98520.97;4968336;28;20038;-80
2022/04/08 04:38:39;;;;;;;8.75;1.65;;;;;;;10.58;52.79;98530.75;4965216;28;20129;-79
2022/04/08 04:41:06;;;;;;;7.65;1.60;;;;;;;10.56;52.62;98541.53;4959147;28;20053;-82
2022/04/08 04:43:33;;;;;;;6.30;1.85;;;;;;;10.56;53.10;98538.88;4961349;28;20412;-78
2022/04/08 04:46:00;;;;;;;9.50;1.90;;;;;;;10.57;52.96;98545.03;4966476;28;20568;-81
2022/04/08 04:48:26;;;;;;;5.95;1.67;;;;;;;10.59;52.48;98549.16;4958090;28;20051;-81
2022/04/08 04:50:54;;;;;;;13.43;3.05;;;;;;;10.56;52.67;98546.84;4974163;28;20045;-79
2022/04/08 04:53:21;;;;;;;13.35;2.55;;;;;;;10.53;52.87;98541.88;4985814;28;20049;-81
2022/04/08 04:55:47;;;;;;;9.65;1.50;;;;;;;10.54;53.13;98551.50;4951849;28;20050;-78
2022/04/08 04:58:15;;;;;;;9.07;1.83;;;;;;;10.53;53.30;98552.50;4953909;28;20073;-79
2022/04/08 05:00:41;;;;;;;12.60;2.67;;;;;;;10.55;53.26;98561.09;4970091;28;20053;-82
2022/04/08 05:03:08;;;;;;;8.13;2.15;;;;;;;10.51;53.25;98559.78;4968998;28;20057;-79
2022/04/08 05:05:35;;;;;;;10.55;2.13;;;;;;;10.52;53.30;98560.63;4967136;28;20042;-80
2022/04/08 05:08:07;;;;;;;8.50;1.77;;;;;;;10.50;53.24;98554.66;4952548;28;20046;-79
2022/04/08 05:10:33;;;;;;;15.93;2.70;;;;;;;10.50;52.93;98563.44;4946713;28;20649;-81
2022/04/08 05:13:00;;;;;;;5.68;2.30;;;;;;;10.49;53.16;98569.75;4978115;28;22689;-79
2022/04/08 05:15:28;;;;;;;14.10;2.35;;;;;;;10.47;53.24;98566.41;4978139;28;20043;-81
2022/04/08 05:17:57;;;;;;;5.30;1.65;;;;;;;10.47;53.27;98569.06;4970620;28;20043;-81
2022/04/08 05:20:24;;;;;;;10.75;2.38;;;;;;;10.45;53.31;98572.88;4965809;28;20050;-81
2022/04/08 05:22:50;;;;;;;13.25;1.90;;;;;;;10.45;53.44;98579.03;4969552;28;20401;-80
2022/04/08 05:25:17;;;;;;;9.15;2.25;;;;;;;10.44;53.68;98577.38;4966897;28;20046;-82
2022/04/08 05:27:46;;;;;;;10.95;2.33;;;;;;;10.45;53.44;98570.25;4966429;28;20043;-81
2022/04/08 05:30:16;;;;;;;10.57;2.05;;;;;;;10.46;53.37;98574.53;4957339;28;20150;-81
2022/04/08 05:32:44;;;;;;;11.80;3.05;;;;;;;10.46;53.60;98571.88;4996155;28;20042;-81
2022/04/08 05:35:10;;;;;;;17.05;3.45;;;;;;;10.47;53.58;98574.38;4968300;28;20047;-83
2022/04/08 05:37:42;;;;;;;11.73;1.98;;;;;;;10.44;53.31;98574.72;4952483;28;20043;-82
2022/04/08 05:40:17;;;;;;;12.85;1.67;;;;;;;10.38;53.59;98572.72;4951479;28;20046;-81
2022/04/08 05:42:46;;;;;;;13.07;3.25;;;;;;;10.46;53.54;98561.25;4977591;28;20498;-82
2022/04/08 05:45:21;;;;;;;9.85;2.00;;;;;;;10.41;53.51;98573.22;4983518;28;20050;-81
2022/04/08 05:47:50;;;;;;;10.60;1.92;;;;;;;10.43;53.67;98581.00;4964404;28;20069;-82
2022/04/08 05:50:19;;;;;;;7.90;2.47;;;;;;;10.47;53.79;98576.22;4969495;28;20046;-82
2022/04/08 05:52:47;;;;;;;15.95;2.10;;;;;;;10.47;53.64;98582.34;4952462;28;20043;-83
2022/04/08 05:55:14;;;;;;;8.93;2.20;;;;;;;10.50;53.65;98578.53;4960562;28;20125;-82
2022/04/08 05:57:42;;;;;;;7.40;1.90;;;;;;;10.48;54.00;98578.72;4963551;28;20057;-81
2022/04/08 06:00:12;;;;;;;7.05;1.73;;;;;;;10.47;53.90;98571.72;4963995;28;20145;-81
2022/04/08 06:02:59;;;;;;;8.73;1.88;;;;;;;10.46;54.20;98569.22;4938686;28;20078;-81
2022/04/08 06:05:26;;;;;;;11.40;2.05;;;;;;;10.49;53.82;98572.41;4967416;28;20043;-82
2022/04/08 06:07:54;;;;;;;12.50;2.80;;;;;;;10.45;54.13;98560.44;4951692;28;20066;-82
2022/04/08 06:10:23;;;;;;;10.23;2.30;;;;;;;10.47;54.07;98569.06;4987101;28;20127;-82
2022/04/08 06:12:50;;;;;;;19.45;2.15;;;;;;;10.48;54.09;98559.28;4975641;28;20062;-82
2022/04/08 06:15:18;;;;;;;13.18;2.10;;;;;;;10.48;53.93;98565.44;4969203;28;20059;-81
2022/04/08 06:17:46;;;;;;;9.60;2.35;;;;;;;10.45;54.08;98557.78;4959296;28;20050;-83
2022/04/08 06:20:16;;;;;;;9.43;2.17;;;;;;;10.46;54.28;98559.47;4964078;28;20046;-82
2022/04/08 06:22:42;;;;;;;8.40;2.03;;;;;;;10.45;54.35;98563.09;4978025;28;20049;-82
2022/04/08 06:25:11;;;;;;;11.40;2.25;;;;;;;10.45;54.36;98567.59;4975014;28;20125;-82
2022/04/08 06:27:40;;;;;;;12.55;2.33;;;;;;;10.45;54.29;98562.28;4976147;28;20049;-83
2022/04/08 06:30:11;;;;;;;14.20;2.45;;;;;;;10.43;54.30;98565.09;4981819;28;20047;-83
2022/04/08 06:32:38;;;;;;;18.27;2.80;;;;;;;10.45;54.49;98552.47;4967942;28;20057;-87
2022/04/08 06:35:06;;;;;;;17.08;2.75;;;;;;;10.46;54.75;98558.63;4950912;28;20042;-83
2022/04/08 06:37:33;;;;;;;9.50;1.73;;;;;;;10.46;54.55;98555.97;4980898;28;20081;-82
2022/04/08 06:40:09;;;;;;;6.15;2.25;;;;;;;10.41;54.61;98554.66;4966145;28;20050;-87
2022/04/08 06:42:38;;;;;;;13.27;1.98;;;;;;;10.47;54.61;98554.97;4958612;28;20043;-82
2022/04/08 06:45:07;;;;;;;14.30;2.13;;;;;;;10.46;54.60;98554.16;4932278;28;20046;-81
2022/04/08 06:47:45;;;;;;;15.32;1.83;;;;;;;10.39;54.60;98553.97;4972577;28;20105;-81
2022/04/08 06:50:12;;;;;;;13.57;1.60;;;;;;;10.46;54.83;98548.84;4953198;28;20548;-82
2022/04/08 06:52:39;;;;;;;9.13;1.95;;;;;;;10.45;54.72;98560.44;4969194;28;20061;-82
2022/04/08 06:55:07;;;;;;;11.77;1.75;;;;;;;10.44;54.28;98550.84;4933680;28;20486;-82
2022/04/08 06:57:33;;;;;;;10.07;2.47;;;;;;;10.43;54.28;98538.53;4981029;28;20409;-82
2022/04/08 07:00:01;;;;;;;5.63;1.60;;;;;;;10.40;54.37;98536.22;4932569;28;20043;-82
2022/04/08 07:02:28;;;;;;;10.75;2.10;;;;;;;10.35;54.44;98536.72;4964065;28;20050;-82
2022/04/08 07:04:58;;;;;;;12.55;1.80;;;;;;;10.42;54.31;98520.97;4986163;28;20149;-82
2022/04/08 07:07:30;;;;;;;16.05;2.88;;;;;;;10.34;54.33;98518.34;4990376;28;20046;-81
2022/04/08 07:09:57;;;;;;;8.55;1.75;;;;;;;10.38;54.58;98511.69;4977479;28;20046;-82
2022/04/08 07:12:25;;;;;;;12.32;2.40;;;;;;;10.43;54.44;98517.31;4983127;28;20077;-81
2022/04/08 07:14:52;;;;;;;15.48;2.80;;;;;;;10.39;54.83;98505.41;4968290;28;20047;-81
2022/04/08 07:17:35;;;;;;;9.23;2.05;;;;;;;10.37;54.96;98507.38;4953129;28;20053;-82
2022/04/08 07:20:14;;;;;;;13.98;2.72;;;;;;;10.39;54.81;98500.91;4975874;28;20047;-82
2022/04/08 07:22:43;;;;;;;7.82;1.58;;;;;;;10.40;54.89;98499.91;4963408;28;20078;-82
2022/04/08 07:25:11;;;;;;;10.20;2.08;;;;;;;10.35;54.35;98485.47;4981372;28;20092;-82
2022/04/08 07:27:46;;;;;;;10.82;2.40;;;;;;;10.35;54.54;98488.13;4966267;28;20060;-82
2022/04/08 07:30:13;;;;;;;21.27;3.53;;;;;;;10.38;54.89;98483.34;4980028;28;20125;-82
2022/04/08 07:32:40;;;;;;;9.98;2.10;;;;;;;10.38;55.05;98480.69;4974433;28;20502;-82
2022/04/08 07:35:08;;;;;;;10.52;1.77;;;;;;;10.39;54.81;98477.03;4972190;28;20122;-82
2022/04/08 07:37:34;;;;;;;11.75;2.40;;;;;;;10.38;54.86;98466.56;4946387;28;20047;-83
2022/04/08 07:40:05;;;;;;;14.90;3.20;;;;;;;10.38;54.91;98469.22;4971813;28;20421;-82
2022/04/08 07:42:31;;;;;;;18.13;3.38;;;;;;;10.41;55.27;98466.25;4949247;28;20046;-83
2022/04/08 07:44:58;;;;;;;11.50;2.20;;;;;;;10.42;55.03;98467.91;4961457;28;20557;-82
2022/04/08 07:47:28;;;;;;;11.27;2.35;;;;;;;10.41;54.98;98464.44;4980948;28;20101;-83
2022/04/08 07:50:09;;;;;;;14.25;2.40;;;;;;;10.39;55.33;98462.94;4964376;28;20640;-82
2022/04/08 07:52:36;;;;;;;11.27;2.33;;;;;;;10.44;55.33;98468.56;4977322;28;20138;-81
2022/04/08 07:55:03;;;;;;;13.60;2.20;;;;;;;10.45;55.46;98472.03;4976632;28;20495;-81
2022/04/08 07:57:30;;;;;;;12.32;2.75;;;;;;;10.47;55.35;98470.88;4965627;28;20090;-81
2022/04/08 07:59:56;;;;;;;11.75;2.08;;;;;;;10.44;55.37;98460.59;4967339;28;20050;-82
2022/04/08 08:02:23;;;;;;;11.15;2.22;;;;;;;10.43;55.21;98462.44;4970186;28;20059;-81
2022/04/08 08:04:50;;;;;;;11.00;2.50;;;;;;;10.47;55.25;98456.78;4972316;28;20066;-81
2022/04/08 08:07:18;;;;;;;13.50;2.28;;;;;;;10.42;55.23;98451.97;4961512;28;20533;-81
2022/04/08 08:09:45;;;;;;;12.50;2.17;;;;;;;10.38;55.43;98448.84;4956765;28;20111;-81
2022/04/08 08:12:22;;;;;;;10.38;2.80;;;;;;;10.36;55.65;98444.72;4962792;28;20395;-81
2022/04/08 08:14:49;;;;;;;21.92;3.10;;;;;;;10.37;55.75;98441.03;4977247;28;20134;-81
2022/04/08 08:17:16;;;;;;;11.57;3.45;;;;;;;10.37;55.58;98456.97;4965133;28;20058;-81
2022/04/08 08:19:42;;;;;;;8.07;2.50;;;;;;;10.36;55.84;98448.19;4966605;28;20121;-81
2022/04/08 08:22:09;;;;;;;9.05;2.88;;;;;;;10.35;55.88;98451.81;4965521;28;20129;-81
2022/04/08 08:24:36;;;;;;;6.18;1.52;;;;;;;10.34;56.19;98450.16;4966497;28;20058;-80
2022/04/08 08:27:03;;;;;;;4.35;1.40;;;;;;;10.37;55.88;98456.97;4965916;28;20141;-79
2022/04/08 08:29:30;;;;;;;7.93;2.00;;;;;;;10.32;56.23;98452.16;4970973;28;20051;-79
2022/04/08 08:31:56;;;;;;;12.75;1.70;;;;;;;10.30;56.37;98458.63;4972869;28;20053;-79
2022/04/08 08:34:24;;;;;;;10.45;2.53;;;;;;;10.26;56.77;98452.00;4942917;28;20397;-81
2022/04/08 08:36:52;;;;;;;7.05;1.77;;;;;;;10.27;56.66;98461.59;4949178;28;20054;-82
2022/04/08 08:39:20;;;;;;;9.95;3.30;;;;;;;10.21;57.17;98455.97;4971035;28;20134;-83
2022/04/08 08:41:48;;;;;;;9.90;1.80;;;;;;;10.18;57.04;98461.59;4962058;28;20516;-83
2022/04/08 08:44:16;;;;;;;6.50;2.03;;;;;;;10.18;57.18;98460.78;4961390;28;20053;-82
2022/04/08 08:46:43;;;;;;;5.20;1.17;;;;;;;10.19;57.05;98457.13;4985695;28;20062;-83
2022/04/08 08:49:14;;;;;;;7.72;1.83;;;;;;;10.17;57.57;98457.28;4963821;28;20090;-84
2022/04/08 08:51:49;;;;;;;7.82;1.63;;;;;;;10.17;58.38;98451.97;4961677;28;20132;-84
2022/04/08 08:54:16;;;;;;;7.25;1.33;;;;;;;10.22;58.63;98446.16;4972449;28;20074;-82
2022/04/08 08:56:43;;;;;;;7.25;2.05;;;;;;;10.22;59.00;98444.34;4956263;28;20077;-83
2022/04/08 08:59:11;;;;;;;8.98;2.10;;;;;;;10.26;59.08;98452.00;4952345;28;20617;-82
2022/04/08 09:01:48;;;;;;;9.25;2.13;;;;;;;10.21;59.70;98447.19;4956548;28;20465;-82
2022/04/08 09:04:15;;;;;;;8.07;2.20;;;;;;;10.25;59.11;98445.81;4944163;28;20113;-83
2022/04/08 09:06:42;;;;;;;17.75;2.70;;;;;;;10.24;59.77;98441.53;4974026;28;20065;-82
2022/04/08 09:09:11;;;;;;;8.27;2.70;;;;;;;10.26;60.02;98444.03;4968989;28;20117;-82
2022/04/08 09:11:37;;;;;;;11.07;2.05;;;;;;;10.24;59.89;98438.88;4966852;28;20075;-81
2022/04/08 09:14:05;;;;;;;5.45;1.52;;;;;;;10.25;60.17;98439.69;4967390;28;20138;-83
2022/04/08 09:16:39;;;;;;;8.45;2.45;;;;;;;10.17;62.49;98433.41;4949265;28;20055;-82
2022/04/08 09:19:13;;;;;;;7.40;2.17;;;;;;;10.19;60.90;98430.59;4954911;28;20093;-83
2022/04/08 09:21:52;;;;;;;10.20;1.92;;;;;;;10.15;61.18;98423.94;4944516;28;20073;-81
2022/04/08 09:24:22;;;;;;;7.43;2.70;;;;;;;10.21;60.38;98420.66;4948638;28;20536;-82
2022/04/08 09:26:52;;;;;;;8.40;2.90;;;;;;;10.18;61.24;98413.84;4954340;28;20502;-82
2022/04/08 09:29:21;;;;;;;11.82;2.90;;;;;;;10.21;61.16;98415.34;4960801;28;20070;-82
2022/04/08 09:36:40;;;;;;;7.60;2.30;;;;;;;10.12;61.46;98397.78;4953911;28;20031;-89
2022/04/08 09:39:07;;;;;;;9.43;1.90;;;;;;;10.16;60.95;98405.22;4962272;28;20046;-87
2022/04/08 09:41:46;;;;;;;9.25;2.90;;;;;;;10.10;62.42;98391.81;4966355;28;20097;-88
2022/04/08 09:44:14;;;;;;;9.32;2.00;;;;;;;10.18;61.46;98397.13;4966913;28;20117;-87
2022/04/08 09:46:41;;;;;;;11.38;2.50;;;;;;;10.18;61.67;98391.81;4954973;28;20050;-88
2022/04/08 09:49:13;;;;;;;4.82;1.90;;;;;;;10.16;61.98;98380.53;4954443;28;20397;-86
2022/04/08 09:51:40;;;;;;;5.70;1.65;;;;;;;10.19;61.52;98375.72;4975022;28;20054;-85
2022/04/08 09:54:10;;;;;;;6.93;1.83;;;;;;;10.19;62.41;98367.75;4972987;28;20125;-84
2022/04/08 09:56:37;;;;;;;6.00;1.77;;;;;;;10.20;62.49;98365.91;4965452;28;20047;-87
2022/04/08 09:59:14;;;;;;;10.20;2.45;;;;;;;10.15;62.63;98358.50;4965505;28;20130;-87
2022/04/08 10:02:01;;;;;;;13.35;3.05;;;;;;;10.15;62.35;98347.03;4929666;28;20046;-90
2022/04/08 10:04:28;;;;;;;10.82;2.80;;;;;;;10.15;62.66;98337.28;4970375;28;20129;-88
2022/04/08 10:06:56;;;;;;;11.57;3.72;;;;;;;10.15;62.81;98329.31;4946453;28;20067;-87
2022/04/08 10:09:25;;;;;;;8.95;2.90;;;;;;;10.12;62.99;98329.63;4980918;28;20070;-87
2022/04/08 10:12:02;;;;;;;4.10;1.85;;;;;;;10.06;64.15;98319.72;4963858;28;20449;-87
2022/04/08 10:15:03;;;;;;;5.15;2.13;;;;;;;10.01;64.08;98324.69;4973540;28;20485;-87
2022/04/08 10:17:30;;;;;;;8.85;2.38;;;;;;;10.11;63.59;98309.44;4929246;28;20046;-85
2022/04/08 10:20:20;;;;;;;4.32;1.33;;;;;;;10.01;64.50;98306.13;4948682;28;20070;-86
2022/04/08 10:22:48;;;;;;;2.00;1.52;;;;;;;10.12;63.65;98295.16;4889922;28;20053;-86
2022/04/08 10:25:17;;;;;;;2.67;1.17;;;;;;;10.11;63.16;98279.44;4946708;28;20051;-86
2022/04/08 10:27:44;;;;;;;2.63;1.20;;;;;;;10.14;63.14;98279.09;4954025;28;20494;-88
2022/04/08 10:30:15;;;;;;;1.77;1.38;;;;;;;10.13;62.73;98269.47;4960262;28;20046;-85
2022/04/08 10:32:43;;;;;;;8.68;1.65;;;;;;;10.12;62.72;98271.28;4969526;28;20065;-87
2022/04/08 10:35:18;;;;;;;4.18;1.52;;;;;;;10.07;63.18;98260.34;4977560;28;20050;-86
2022/04/08 10:38:01;;;;;;;3.40;1.80;;;;;;;10.02;63.92;98254.75;4979212;28;20134;-86
2022/04/08 10:40:39;;;;;;;5.35;2.00;;;;;;;10.02;64.01;98252.09;4959344;28;20050;-87
2022/04/08 10:47:27;;;;;;;4.45;1.90;;;;;;;10.04;63.46;98246.63;4947435;28;20027;-89
2022/04/08 10:50:02;;;;;;;4.70;2.38;;;;;;;10.05;63.50;98235.88;4947869;28;20053;-87
2022/04/08 10:52:30;;;;;;;5.40;2.60;;;;;;;10.05;64.19;98235.88;4985180;28;20038;-84
2022/04/08 10:55:04;;;;;;;7.28;2.58;;;;;;;10.00;64.54;98240.84;4982367;28;20047;-85
2022/04/08 10:57:37;;;;;;;3.38;1.70;;;;;;;10.03;64.40;98234.38;4965105;28;20047;-87
2022/04/08 11:00:11;;;;;;;3.55;1.60;;;;;;;10.01;64.61;98234.53;4996548;28;20047;-87
2022/04/08 11:02:40;;;;;;;2.47;1.08;;;;;;;10.05;63.66;98235.00;4965140;28;20397;-86
2022/04/08 11:05:12;;;;;;;5.15;1.30;;;;;;;10.03;63.87;98235.19;4962716;28;20120;-86
2022/04/08 11:07:40;;;;;;;2.90;0.90;;;;;;;10.05;63.95;98227.91;4973618;28;20046;-85
2022/04/08 11:10:15;;;;;;;4.90;1.40;;;;;;;10.00;64.23;98225.75;4982777;28;20095;-84
2022/04/08 11:12:51;;;;;;;7.93;2.20;;;;;;;9.97;64.30;98217.31;4946356;28;20847;-82
2022/04/08 11:15:20;;;;;;;8.85;1.48;;;;;;;9.99;64.25;98216.13;4924629;28;20102;-82
2022/04/08 11:17:47;;;;;;;6.93;2.67;;;;;;;9.99;64.08;98204.72;4968013;28;20065;-82
2022/04/08 11:20:15;;;;;;;8.52;3.30;;;;;;;9.98;63.58;98209.19;4965049;28;20134;-81
2022/04/08 11:22:43;;;;;;;6.18;1.95;;;;;;;9.96;63.74;98200.56;4976826;28;20047;-82
2022/04/08 11:25:21;;;;;;;6.75;2.78;;;;;;;9.90;64.54;98201.28;4979996;28;20581;-82
2022/04/08 11:28:03;;;;;;;11.70;4.00;;;;;;;9.86;64.76;98197.31;4966749;28;20430;-82
2022/04/08 11:30:33;;;;;;;11.13;3.15;;;;;;;9.94;64.39;98193.78;4932180;28;20042;-82
2022/04/08 11:33:14;;;;;;;9.07;2.92;;;;;;;9.87;65.22;98192.81;4960888;28;20058;-82
2022/04/08 11:35:45;;;;;;;3.85;2.15;;;;;;;9.92;64.64;98190.47;4983366;28;20042;-82
2022/04/08 11:38:20;;;;;;;12.82;4.90;;;;;;;9.89;65.66;98178.41;4949136;28;20058;-82
2022/04/08 11:40:46;;;;;;;4.03;2.00;;;;;;;9.94;64.77;98168.09;4980863;28;20043;-82
2022/04/08 11:43:19;;;;;;;6.72;2.42;;;;;;;9.89;64.98;98169.63;4978006;28;20690;-82
2022/04/08 11:45:48;;;;;;;15.98;6.50;;;;;;;9.92;64.96;98175.41;4978804;28;20048;-82
2022/04/08 11:48:17;;;;;;;6.68;3.15;;;;;;;9.93;65.08;98160.34;4958867;28;20051;-82